sensor_id;sensor_type;location;lat;lon;timestamp;P1;durP1;ratioP1;P2;durP2;ratioP2
8526;SDS011;4301;48.362;8.478;2023-04-03T00:01:00;8.70;;;6.70;;
8526;SDS011;4301;48.362;8.478;2023-04-03T00:03:27;8.73;;;6.87;;
8526;SDS011;4301;48.362;8.478;2023-04-03T00:05:54;6.87;;;6.13;;
8526;SDS011;4301;48.362;8.478;2023-04-03T00:08:21;8.27;;;7.20;;
8526;SDS011;4301;48.362;8.478;2023-04-03T00:10:50;7.50;;;6.77;;
8526;SDS011;4301;48.362;8.478;2023-04-03T00:13:16;7.20;;;6.60;;
8526;SDS011;4301;48.362;8.478;2023-04-03T00:15:44;7.57;;;6.73;;
8526;SDS011;4301;48.362;8.478;2023-04-03T00:18:11;7.60;;;6.80;;
8526;SDS011;4301;48.362;8.478;2023-04-03T00:20:38;8.40;;;7.37;;
8526;SDS011;4301;48.362;8.478;2023-04-03T00:23:05;7.83;;;7.13;;
8526;SDS011;4301;48.362;8.478;2023-04-03T00:25:32;7.77;;;7.00;;
8526;SDS011;4301;48.362;8.478;2023-04-03T00:28:00;8.20;;;7.37;;
8526;SDS011;4301;48.362;8.478;2023-04-03T00:30:28;8.30;;;7.50;;
8526;SDS011;4301;48.362;8.478;2023-04-03T00:32:55;8.83;;;7.43;;
8526;SDS011;4301;48.362;8.478;2023-04-03T00:35:22;10.23;;;7.60;;
8526;SDS011;4301;48.362;8.478;2023-04-03T00:37:50;13.27;;;7.80;;
8526;SDS011;4301;48.362;8.478;2023-04-03T00:40:19;7.60;;;6.90;;
8526;SDS011;4301;48.362;8.478;2023-04-03T00:42:47;7.83;;;7.13;;
8526;SDS011;4301;48.362;8.478;2023-04-03T00:45:30;8.37;;;7.50;;
8526;SDS011;4301;48.362;8.478;2023-04-03T00:47:59;7.73;;;6.97;;
8526;SDS011;4301;48.362;8.478;2023-04-03T00:50:30;7.80;;;7.10;;
8526;SDS011;4301;48.362;8.478;2023-04-03T00:52:58;8.27;;;7.50;;
8526;SDS011;4301;48.362;8.478;2023-04-03T00:55:26;8.27;;;7.40;;
8526;SDS011;4301;48.362;8.478;2023-04-03T00:57:53;8.13;;;7.30;;
8526;SDS011;4301;48.362;8.478;2023-04-03T01:00:23;8.10;;;7.20;;
8526;SDS011;4301;48.362;8.478;2023-04-03T01:02:52;8.77;;;7.67;;
8526;SDS011;4301;48.362;8.478;2023-04-03T01:05:20;8.87;;;8.07;;
8526;SDS011;4301;48.362;8.478;2023-04-03T01:07:47;8.90;;;8.00;;
8526;SDS011;4301;48.362;8.478;2023-04-03T01:10:16;9.23;;;7.63;;
8526;SDS011;4301;48.362;8.478;2023-04-03T01:12:45;9.20;;;8.30;;
8526;SDS011;4301;48.362;8.478;2023-04-03T01:15:14;8.73;;;7.77;;
8526;SDS011;4301;48.362;8.478;2023-04-03T01:17:43;8.10;;;7.30;;
8526;SDS011;4301;48.362;8.478;2023-04-03T01:20:30;11.53;;;7.60;;
8526;SDS011;4301;48.362;8.478;2023-04-03T01:23:08;9.70;;;8.80;;
8526;SDS011;4301;48.362;8.478;2023-04-03T01:25:45;8.77;;;7.97;;
8526;SDS011;4301;48.362;8.478;2023-04-03T01:28:14;11.80;;;8.90;;
8526;SDS011;4301;48.362;8.478;2023-04-03T01:30:45;8.90;;;8.00;;
8526;SDS011;4301;48.362;8.478;2023-04-03T01:33:18;8.80;;;7.90;;
8526;SDS011;4301;48.362;8.478;2023-04-03T01:35:45;8.97;;;8.07;;
8526;SDS011;4301;48.362;8.478;2023-04-03T01:38:12;8.43;;;7.63;;
8526;SDS011;4301;48.362;8.478;2023-04-03T01:40:39;8.83;;;8.10;;
8526;SDS011;4301;48.362;8.478;2023-04-03T01:43:06;8.90;;;8.00;;
8526;SDS011;4301;48.362;8.478;2023-04-03T01:45:32;9.00;;;8.10;;
8526;SDS011;4301;48.362;8.478;2023-04-03T01:47:59;8.70;;;7.90;;
8526;SDS011;4301;48.362;8.478;2023-04-03T01:50:28;9.43;;;7.93;;
8526;SDS011;4301;48.362;8.478;2023-04-03T01:52:55;9.43;;;7.90;;
8526;SDS011;4301;48.362;8.478;2023-04-03T01:55:22;8.70;;;7.80;;
8526;SDS011;4301;48.362;8.478;2023-04-03T01:57:48;8.83;;;7.77;;
8526;SDS011;4301;48.362;8.478;2023-04-03T02:00:16;10.73;;;7.60;;
8526;SDS011;4301;48.362;8.478;2023-04-03T02:02:43;8.17;;;7.43;;
8526;SDS011;4301;48.362;8.478;2023-04-03T02:05:09;8.77;;;7.90;;
8526;SDS011;4301;48.362;8.478;2023-04-03T02:07:38;9.60;;;8.60;;
8526;SDS011;4301;48.362;8.478;2023-04-03T02:10:05;9.20;;;7.67;;
8526;SDS011;4301;48.362;8.478;2023-04-03T02:12:33;9.50;;;7.90;;
8526;SDS011;4301;48.362;8.478;2023-04-03T02:15:00;8.47;;;7.57;;
8526;SDS011;4301;48.362;8.478;2023-04-03T02:17:26;8.47;;;7.67;;
8526;SDS011;4301;48.362;8.478;2023-04-03T02:19:53;9.33;;;7.93;;
8526;SDS011;4301;48.362;8.478;2023-04-03T02:22:20;8.50;;;7.63;;
8526;SDS011;4301;48.362;8.478;2023-04-03T02:24:49;8.90;;;8.00;;
8526;SDS011;4301;48.362;8.478;2023-04-03T02:27:16;8.77;;;7.90;;
8526;SDS011;4301;48.362;8.478;2023-04-03T02:29:43;9.50;;;7.57;;
8526;SDS011;4301;48.362;8.478;2023-04-03T02:32:10;8.57;;;7.77;;
8526;SDS011;4301;48.362;8.478;2023-04-03T02:34:37;8.43;;;7.53;;
8526;SDS011;4301;48.362;8.478;2023-04-03T02:37:04;9.57;;;7.63;;
8526;SDS011;4301;48.362;8.478;2023-04-03T02:39:31;8.10;;;7.30;;
8526;SDS011;4301;48.362;8.478;2023-04-03T02:41:59;8.60;;;7.77;;
8526;SDS011;4301;48.362;8.478;2023-04-03T02:44:26;9.07;;;8.17;;
8526;SDS011;4301;48.362;8.478;2023-04-03T02:46:53;9.20;;;8.30;;
8526;SDS011;4301;48.362;8.478;2023-04-03T02:49:20;8.73;;;7.70;;
8526;SDS011;4301;48.362;8.478;2023-04-03T02:51:47;8.50;;;7.40;;
8526;SDS011;4301;48.362;8.478;2023-04-03T02:54:14;8.97;;;8.07;;
8526;SDS011;4301;48.362;8.478;2023-04-03T02:56:41;10.53;;;8.30;;
8526;SDS011;4301;48.362;8.478;2023-04-03T02:59:09;8.23;;;7.43;;
8526;SDS011;4301;48.362;8.478;2023-04-03T03:01:36;8.23;;;7.47;;
8526;SDS011;4301;48.362;8.478;2023-04-03T03:04:03;8.47;;;7.63;;
8526;SDS011;4301;48.362;8.478;2023-04-03T03:06:30;9.20;;;8.30;;
8526;SDS011;4301;48.362;8.478;2023-04-03T03:08:57;8.00;;;7.20;;
8526;SDS011;4301;48.362;8.478;2023-04-03T03:11:24;7.87;;;7.07;;
8526;SDS011;4301;48.362;8.478;2023-04-03T03:13:51;8.60;;;7.37;;
8526;SDS011;4301;48.362;8.478;2023-04-03T03:16:19;7.63;;;6.93;;
8526;SDS011;4301;48.362;8.478;2023-04-03T03:18:46;8.00;;;7.20;;
8526;SDS011;4301;48.362;8.478;2023-04-03T03:21:13;8.30;;;7.50;;
8526;SDS011;4301;48.362;8.478;2023-04-03T03:23:40;9.87;;;7.30;;
8526;SDS011;4301;48.362;8.478;2023-04-03T03:26:08;7.77;;;7.00;;
8526;SDS011;4301;48.362;8.478;2023-04-03T03:28:36;7.50;;;6.87;;
8526;SDS011;4301;48.362;8.478;2023-04-03T03:31:04;8.00;;;7.27;;
8526;SDS011;4301;48.362;8.478;2023-04-03T03:33:32;8.47;;;7.07;;
8526;SDS011;4301;48.362;8.478;2023-04-03T03:35:59;7.53;;;6.83;;
8526;SDS011;4301;48.362;8.478;2023-04-03T03:38:26;7.37;;;6.67;;
8526;SDS011;4301;48.362;8.478;2023-04-03T03:40:53;7.47;;;6.77;;
8526;SDS011;4301;48.362;8.478;2023-04-03T03:43:20;8.67;;;7.73;;
8526;SDS011;4301;48.362;8.478;2023-04-03T03:45:49;8.60;;;7.53;;
8526;SDS011;4301;48.362;8.478;2023-04-03T03:48:16;9.00;;;6.80;;
8526;SDS011;4301;48.362;8.478;2023-04-03T03:50:45;7.13;;;6.53;;
8526;SDS011;4301;48.362;8.478;2023-04-03T03:53:12;7.63;;;6.83;;
8526;SDS011;4301;48.362;8.478;2023-04-03T03:55:39;7.00;;;6.33;;
8526;SDS011;4301;48.362;8.478;2023-04-03T03:58:07;6.57;;;6.03;;
8526;SDS011;4301;48.362;8.478;2023-04-03T04:00:34;6.67;;;5.93;;
8526;SDS011;4301;48.362;8.478;2023-04-03T04:03:01;6.83;;;6.13;;
8526;SDS011;4301;48.362;8.478;2023-04-03T04:05:28;7.30;;;6.57;;
8526;SDS011;4301;48.362;8.478;2023-04-03T04:07:56;7.00;;;6.30;;
8526;SDS011;4301;48.362;8.478;2023-04-03T04:10:23;6.30;;;5.70;;
8526;SDS011;4301;48.362;8.478;2023-04-03T04:12:50;6.97;;;6.27;;
8526;SDS011;4301;48.362;8.478;2023-04-03T04:15:17;7.00;;;6.27;;
8526;SDS011;4301;48.362;8.478;2023-04-03T04:17:46;6.57;;;5.77;;
8526;SDS011;4301;48.362;8.478;2023-04-03T04:20:13;6.83;;;6.23;;
8526;SDS011;4301;48.362;8.478;2023-04-03T04:22:40;6.43;;;5.83;;
8526;SDS011;4301;48.362;8.478;2023-04-03T04:25:09;6.87;;;6.20;;
8526;SDS011;4301;48.362;8.478;2023-04-03T04:27:36;6.27;;;5.67;;
8526;SDS011;4301;48.362;8.478;2023-04-03T04:30:03;6.03;;;5.50;;
8526;SDS011;4301;48.362;8.478;2023-04-03T04:32:31;6.23;;;5.63;;
8526;SDS011;4301;48.362;8.478;2023-04-03T04:34:58;6.80;;;6.20;;
8526;SDS011;4301;48.362;8.478;2023-04-03T04:37:26;6.83;;;5.77;;
8526;SDS011;4301;48.362;8.478;2023-04-03T04:39:53;7.70;;;6.00;;
8526;SDS011;4301;48.362;8.478;2023-04-03T04:42:21;8.33;;;6.07;;
8526;SDS011;4301;48.362;8.478;2023-04-03T04:44:48;6.70;;;5.53;;
8526;SDS011;4301;48.362;8.478;2023-04-03T04:47:15;6.00;;;5.40;;
8526;SDS011;4301;48.362;8.478;2023-04-03T04:49:43;5.80;;;5.30;;
8526;SDS011;4301;48.362;8.478;2023-04-03T04:52:10;7.17;;;5.77;;
8526;SDS011;4301;48.362;8.478;2023-04-03T04:54:37;6.77;;;5.87;;
8526;SDS011;4301;48.362;8.478;2023-04-03T04:57:04;7.20;;;6.17;;
8526;SDS011;4301;48.362;8.478;2023-04-03T04:59:32;8.67;;;6.17;;
8526;SDS011;4301;48.362;8.478;2023-04-03T05:01:59;6.00;;;5.50;;
8526;SDS011;4301;48.362;8.478;2023-04-03T05:04:26;6.03;;;5.53;;
8526;SDS011;4301;48.362;8.478;2023-04-03T05:06:53;7.10;;;5.07;;
8526;SDS011;4301;48.362;8.478;2023-04-03T05:09:20;7.23;;;5.90;;
8526;SDS011;4301;48.362;8.478;2023-04-03T05:11:47;7.93;;;5.97;;
8526;SDS011;4301;48.362;8.478;2023-04-03T05:14:15;7.70;;;5.43;;
8526;SDS011;4301;48.362;8.478;2023-04-03T05:16:43;6.00;;;5.50;;
8526;SDS011;4301;48.362;8.478;2023-04-03T05:19:10;6.27;;;5.60;;
8526;SDS011;4301;48.362;8.478;2023-04-03T05:21:37;6.40;;;5.80;;
8526;SDS011;4301;48.362;8.478;2023-04-03T05:24:04;5.60;;;5.20;;
8526;SDS011;4301;48.362;8.478;2023-04-03T05:26:34;7.03;;;5.60;;
8526;SDS011;4301;48.362;8.478;2023-04-03T05:29:01;6.33;;;5.80;;
8526;SDS011;4301;48.362;8.478;2023-04-03T05:31:29;6.27;;;5.50;;
8526;SDS011;4301;48.362;8.478;2023-04-03T05:33:57;7.00;;;6.00;;
8526;SDS011;4301;48.362;8.478;2023-04-03T05:36:24;6.33;;;5.50;;
8526;SDS011;4301;48.362;8.478;2023-04-03T05:38:51;6.13;;;5.30;;
8526;SDS011;4301;48.362;8.478;2023-04-03T05:41:21;6.47;;;5.50;;
8526;SDS011;4301;48.362;8.478;2023-04-03T05:43:48;5.60;;;5.10;;
8526;SDS011;4301;48.362;8.478;2023-04-03T05:46:16;5.90;;;5.30;;
8526;SDS011;4301;48.362;8.478;2023-04-03T05:48:44;6.37;;;5.23;;
8526;SDS011;4301;48.362;8.478;2023-04-03T05:51:14;5.70;;;5.20;;
8526;SDS011;4301;48.362;8.478;2023-04-03T05:53:43;5.63;;;5.00;;
8526;SDS011;4301;48.362;8.478;2023-04-03T05:56:10;5.60;;;5.10;;
8526;SDS011;4301;48.362;8.478;2023-04-03T05:58:37;5.83;;;5.23;;
8526;SDS011;4301;48.362;8.478;2023-04-03T06:01:04;6.03;;;5.03;;
8526;SDS011;4301;48.362;8.478;2023-04-03T06:03:31;5.87;;;5.00;;
8526;SDS011;4301;48.362;8.478;2023-04-03T06:05:58;5.20;;;4.80;;
8526;SDS011;4301;48.362;8.478;2023-04-03T06:08:27;5.23;;;4.83;;
8526;SDS011;4301;48.362;8.478;2023-04-03T06:10:54;7.03;;;5.67;;
8526;SDS011;4301;48.362;8.478;2023-04-03T06:13:21;5.43;;;4.77;;
8526;SDS011;4301;48.362;8.478;2023-04-03T06:15:48;5.53;;;4.80;;
8526;SDS011;4301;48.362;8.478;2023-04-03T06:18:15;5.00;;;4.60;;
8526;SDS011;4301;48.362;8.478;2023-04-03T06:20:42;5.57;;;4.87;;
8526;SDS011;4301;48.362;8.478;2023-04-03T06:23:09;5.27;;;4.80;;
8526;SDS011;4301;48.362;8.478;2023-04-03T06:25:38;4.90;;;4.43;;
8526;SDS011;4301;48.362;8.478;2023-04-03T06:28:05;5.00;;;4.60;;
8526;SDS011;4301;48.362;8.478;2023-04-03T06:30:34;4.87;;;4.37;;
8526;SDS011;4301;48.362;8.478;2023-04-03T06:33:01;4.70;;;4.30;;
8526;SDS011;4301;48.362;8.478;2023-04-03T06:35:28;5.50;;;4.70;;
8526;SDS011;4301;48.362;8.478;2023-04-03T06:37:55;4.87;;;4.40;;
8526;SDS011;4301;48.362;8.478;2023-04-03T06:40:23;5.20;;;4.70;;
8526;SDS011;4301;48.362;8.478;2023-04-03T06:42:52;4.70;;;4.30;;
8526;SDS011;4301;48.362;8.478;2023-04-03T06:45:19;5.27;;;4.77;;
8526;SDS011;4301;48.362;8.478;2023-04-03T06:47:46;5.20;;;4.80;;
8526;SDS011;4301;48.362;8.478;2023-04-03T06:50:13;5.27;;;4.37;;
8526;SDS011;4301;48.362;8.478;2023-04-03T06:52:40;4.50;;;4.10;;
8526;SDS011;4301;48.362;8.478;2023-04-03T06:55:08;4.30;;;4.00;;
8526;SDS011;4301;48.362;8.478;2023-04-03T06:57:35;5.20;;;4.70;;
8526;SDS011;4301;48.362;8.478;2023-04-03T07:00:04;4.77;;;4.27;;
8526;SDS011;4301;48.362;8.478;2023-04-03T07:02:34;4.30;;;3.90;;
8526;SDS011;4301;48.362;8.478;2023-04-03T07:05:01;5.73;;;4.33;;
8526;SDS011;4301;48.362;8.478;2023-04-03T07:07:28;5.77;;;4.50;;
8526;SDS011;4301;48.362;8.478;2023-04-03T07:09:55;4.23;;;3.83;;
8526;SDS011;4301;48.362;8.478;2023-04-03T07:12:22;4.60;;;4.20;;
8526;SDS011;4301;48.362;8.478;2023-04-03T07:14:49;5.53;;;4.00;;
8526;SDS011;4301;48.362;8.478;2023-04-03T07:17:17;4.40;;;4.00;;
8526;SDS011;4301;48.362;8.478;2023-04-03T07:19:44;4.47;;;4.07;;
8526;SDS011;4301;48.362;8.478;2023-04-03T07:22:11;6.30;;;4.47;;
8526;SDS011;4301;48.362;8.478;2023-04-03T07:24:38;4.40;;;4.00;;
8526;SDS011;4301;48.362;8.478;2023-04-03T07:27:05;4.17;;;3.77;;
8526;SDS011;4301;48.362;8.478;2023-04-03T07:29:33;3.93;;;3.57;;
8526;SDS011;4301;48.362;8.478;2023-04-03T07:32:00;4.33;;;3.93;;
8526;SDS011;4301;48.362;8.478;2023-04-03T07:34:28;4.10;;;3.80;;
8526;SDS011;4301;48.362;8.478;2023-04-03T07:36:56;4.20;;;3.83;;
8526;SDS011;4301;48.362;8.478;2023-04-03T07:39:23;4.10;;;3.70;;
8526;SDS011;4301;48.362;8.478;2023-04-03T07:41:51;4.43;;;3.83;;
8526;SDS011;4301;48.362;8.478;2023-04-03T07:44:17;4.27;;;3.60;;
8526;SDS011;4301;48.362;8.478;2023-04-03T07:46:45;4.00;;;3.60;;
8526;SDS011;4301;48.362;8.478;2023-04-03T07:49:12;4.10;;;3.67;;
8526;SDS011;4301;48.362;8.478;2023-04-03T07:51:40;3.70;;;3.40;;
8526;SDS011;4301;48.362;8.478;2023-04-03T07:54:07;3.40;;;3.10;;
8526;SDS011;4301;48.362;8.478;2023-04-03T07:56:34;4.23;;;3.60;;
8526;SDS011;4301;48.362;8.478;2023-04-03T07:59:01;4.47;;;3.50;;
8526;SDS011;4301;48.362;8.478;2023-04-03T08:01:28;3.73;;;3.33;;
8526;SDS011;4301;48.362;8.478;2023-04-03T08:03:58;3.60;;;3.30;;
8526;SDS011;4301;48.362;8.478;2023-04-03T08:06:25;3.30;;;3.00;;
8526;SDS011;4301;48.362;8.478;2023-04-03T08:08:55;3.20;;;2.90;;
8526;SDS011;4301;48.362;8.478;2023-04-03T08:11:23;5.07;;;2.80;;
8526;SDS011;4301;48.362;8.478;2023-04-03T08:13:51;3.07;;;2.77;;
8526;SDS011;4301;48.362;8.478;2023-04-03T08:16:20;3.50;;;3.03;;
8526;SDS011;4301;48.362;8.478;2023-04-03T08:18:48;4.67;;;2.90;;
8526;SDS011;4301;48.362;8.478;2023-04-03T08:21:15;3.90;;;2.67;;
8526;SDS011;4301;48.362;8.478;2023-04-03T08:23:42;3.27;;;2.97;;
8526;SDS011;4301;48.362;8.478;2023-04-03T08:26:11;3.37;;;3.07;;
8526;SDS011;4301;48.362;8.478;2023-04-03T08:28:39;3.90;;;3.07;;
8526;SDS011;4301;48.362;8.478;2023-04-03T08:31:08;3.00;;;2.77;;
8526;SDS011;4301;48.362;8.478;2023-04-03T08:33:36;3.07;;;2.70;;
8526;SDS011;4301;48.362;8.478;2023-04-03T08:36:04;2.80;;;2.60;;
8526;SDS011;4301;48.362;8.478;2023-04-03T08:38:32;2.50;;;2.30;;
8526;SDS011;4301;48.362;8.478;2023-04-03T08:41:05;2.80;;;2.60;;
8526;SDS011;4301;48.362;8.478;2023-04-03T08:43:42;3.10;;;2.60;;
8526;SDS011;4301;48.362;8.478;2023-04-03T08:46:19;2.60;;;2.40;;
8526;SDS011;4301;48.362;8.478;2023-04-03T08:48:52;2.70;;;2.50;;
8526;SDS011;4301;48.362;8.478;2023-04-03T08:51:20;2.17;;;2.07;;
8526;SDS011;4301;48.362;8.478;2023-04-03T08:53:52;2.43;;;2.27;;
8526;SDS011;4301;48.362;8.478;2023-04-03T08:56:24;2.37;;;2.00;;
8526;SDS011;4301;48.362;8.478;2023-04-03T08:58:53;2.53;;;2.33;;
8526;SDS011;4301;48.362;8.478;2023-04-03T09:01:23;2.10;;;2.00;;
8526;SDS011;4301;48.362;8.478;2023-04-03T09:03:53;3.33;;;2.30;;
8526;SDS011;4301;48.362;8.478;2023-04-03T09:06:21;2.13;;;1.97;;
8526;SDS011;4301;48.362;8.478;2023-04-03T09:08:50;2.10;;;2.00;;
8526;SDS011;4301;48.362;8.478;2023-04-03T09:11:27;1.97;;;1.87;;
8526;SDS011;4301;48.362;8.478;2023-04-03T09:14:04;1.90;;;1.80;;
8526;SDS011;4301;48.362;8.478;2023-04-03T09:16:39;2.20;;;1.83;;
8526;SDS011;4301;48.362;8.478;2023-04-03T09:19:15;2.10;;;2.00;;
8526;SDS011;4301;48.362;8.478;2023-04-03T09:21:48;2.73;;;2.53;;
8526;SDS011;4301;48.362;8.478;2023-04-03T09:24:15;2.27;;;2.17;;
8526;SDS011;4301;48.362;8.478;2023-04-03T09:26:45;2.70;;;2.50;;
8526;SDS011;4301;48.362;8.478;2023-04-03T09:29:17;1.90;;;1.80;;
8526;SDS011;4301;48.362;8.478;2023-04-03T09:31:46;2.10;;;2.00;;
8526;SDS011;4301;48.362;8.478;2023-04-03T09:34:18;2.40;;;2.20;;
8526;SDS011;4301;48.362;8.478;2023-04-03T09:36:48;2.30;;;2.10;;
8526;SDS011;4301;48.362;8.478;2023-04-03T09:39:17;2.10;;;2.00;;
8526;SDS011;4301;48.362;8.478;2023-04-03T09:41:56;2.20;;;2.10;;
8526;SDS011;4301;48.362;8.478;2023-04-03T09:44:27;2.27;;;2.17;;
8526;SDS011;4301;48.362;8.478;2023-04-03T09:46:56;2.00;;;1.90;;
8526;SDS011;4301;48.362;8.478;2023-04-03T09:49:24;2.13;;;2.03;;
8526;SDS011;4301;48.362;8.478;2023-04-03T09:51:51;2.33;;;2.13;;
8526;SDS011;4301;48.362;8.478;2023-04-03T09:54:29;2.30;;;2.20;;
8526;SDS011;4301;48.362;8.478;2023-04-03T09:57:00;2.73;;;2.30;;
8526;SDS011;4301;48.362;8.478;2023-04-03T09:59:32;2.33;;;2.23;;
8526;SDS011;4301;48.362;8.478;2023-04-03T10:01:59;2.80;;;2.50;;
8526;SDS011;4301;48.362;8.478;2023-04-03T10:04:36;2.57;;;2.37;;
8526;SDS011;4301;48.362;8.478;2023-04-03T10:07:25;2.50;;;2.30;;
8526;SDS011;4301;48.362;8.478;2023-04-03T10:09:54;2.33;;;2.20;;
8526;SDS011;4301;48.362;8.478;2023-04-03T10:12:23;2.63;;;2.43;;
8526;SDS011;4301;48.362;8.478;2023-04-03T10:14:54;3.07;;;2.43;;
8526;SDS011;4301;48.362;8.478;2023-04-03T10:17:25;2.23;;;1.97;;
8526;SDS011;4301;48.362;8.478;2023-04-03T10:20:06;2.27;;;2.10;;
8526;SDS011;4301;48.362;8.478;2023-04-03T10:22:48;3.10;;;2.20;;
8526;SDS011;4301;48.362;8.478;2023-04-03T10:25:29;2.80;;;2.50;;
8526;SDS011;4301;48.362;8.478;2023-04-03T10:28:03;2.53;;;2.07;;
8526;SDS011;4301;48.362;8.478;2023-04-03T10:30:34;2.30;;;2.00;;
8526;SDS011;4301;48.362;8.478;2023-04-03T10:33:16;2.00;;;1.90;;
8526;SDS011;4301;48.362;8.478;2023-04-03T10:35:49;2.23;;;2.03;;
8526;SDS011;4301;48.362;8.478;2023-04-03T10:38:30;2.10;;;2.00;;
8526;SDS011;4301;48.362;8.478;2023-04-03T10:41:07;3.33;;;2.30;;
8526;SDS011;4301;48.362;8.478;2023-04-03T10:43:42;2.23;;;2.13;;
8526;SDS011;4301;48.362;8.478;2023-04-03T10:46:18;2.30;;;2.10;;
8526;SDS011;4301;48.362;8.478;2023-04-03T10:48:52;2.43;;;2.23;;
8526;SDS011;4301;48.362;8.478;2023-04-03T10:51:29;2.47;;;2.27;;
8526;SDS011;4301;48.362;8.478;2023-04-03T10:54:05;2.37;;;2.17;;
8526;SDS011;4301;48.362;8.478;2023-04-03T10:56:38;3.60;;;2.63;;
8526;SDS011;4301;48.362;8.478;2023-04-03T10:59:20;2.67;;;2.37;;
8526;SDS011;4301;48.362;8.478;2023-04-03T11:01:53;2.53;;;2.33;;
8526;SDS011;4301;48.362;8.478;2023-04-03T11:04:22;3.63;;;2.80;;
8526;SDS011;4301;48.362;8.478;2023-04-03T11:06:55;3.43;;;2.30;;
8526;SDS011;4301;48.362;8.478;2023-04-03T11:09:26;2.77;;;2.57;;
8526;SDS011;4301;48.362;8.478;2023-04-03T11:11:57;2.93;;;2.30;;
8526;SDS011;4301;48.362;8.478;2023-04-03T11:14:32;3.33;;;2.50;;
8526;SDS011;4301;48.362;8.478;2023-04-03T11:19:49;4.17;;;3.40;;
8526;SDS011;4301;48.362;8.478;2023-04-03T11:22:26;2.30;;;2.10;;
8526;SDS011;4301;48.362;8.478;2023-04-03T11:24:58;2.63;;;2.40;;
8526;SDS011;4301;48.362;8.478;2023-04-03T11:27:30;2.83;;;2.53;;
8526;SDS011;4301;48.362;8.478;2023-04-03T11:30:07;2.70;;;2.50;;
8526;SDS011;4301;48.362;8.478;2023-04-03T11:32:55;2.30;;;2.20;;
8526;SDS011;4301;48.362;8.478;2023-04-03T11:35:42;2.57;;;2.37;;
8526;SDS011;4301;48.362;8.478;2023-04-03T11:38:14;2.90;;;2.27;;
8526;SDS011;4301;48.362;8.478;2023-04-03T11:40:45;2.53;;;2.30;;
8526;SDS011;4301;48.362;8.478;2023-04-03T11:43:24;2.47;;;2.27;;
8526;SDS011;4301;48.362;8.478;2023-04-03T11:45:55;2.63;;;2.43;;
8526;SDS011;4301;48.362;8.478;2023-04-03T11:48:41;2.97;;;2.30;;
8526;SDS011;4301;48.362;8.478;2023-04-03T12:06:48;2.60;;;2.40;;
8526;SDS011;4301;48.362;8.478;2023-04-03T12:09:29;3.87;;;3.00;;
8526;SDS011;4301;48.362;8.478;2023-04-03T12:12:00;4.77;;;3.20;;
8526;SDS011;4301;48.362;8.478;2023-04-03T12:14:46;5.43;;;2.83;;
8526;SDS011;4301;48.362;8.478;2023-04-03T12:17:18;2.30;;;2.10;;
8526;SDS011;4301;48.362;8.478;2023-04-03T12:19:50;2.30;;;2.20;;
8526;SDS011;4301;48.362;8.478;2023-04-03T12:22:18;2.83;;;2.60;;
8526;SDS011;4301;48.362;8.478;2023-04-03T12:24:47;2.80;;;2.60;;
8526;SDS011;4301;48.362;8.478;2023-04-03T12:27:22;2.57;;;2.47;;
8526;SDS011;4301;48.362;8.478;2023-04-03T12:29:53;2.67;;;2.50;;
8526;SDS011;4301;48.362;8.478;2023-04-03T12:32:49;2.90;;;2.60;;
8526;SDS011;4301;48.362;8.478;2023-04-03T12:35:27;2.90;;;2.60;;
8526;SDS011;4301;48.362;8.478;2023-04-03T12:40:48;2.60;;;2.40;;
8526;SDS011;4301;48.362;8.478;2023-04-03T12:43:28;3.73;;;2.23;;
8526;SDS011;4301;48.362;8.478;2023-04-03T12:46:10;2.93;;;2.40;;
8526;SDS011;4301;48.362;8.478;2023-04-03T12:48:46;2.80;;;2.37;;
8526;SDS011;4301;48.362;8.478;2023-04-03T12:51:14;2.40;;;2.30;;
8526;SDS011;4301;48.362;8.478;2023-04-03T12:53:46;2.83;;;2.40;;
8526;SDS011;4301;48.362;8.478;2023-04-03T12:56:19;2.50;;;2.30;;
8526;SDS011;4301;48.362;8.478;2023-04-03T12:58:47;2.50;;;2.30;;
8526;SDS011;4301;48.362;8.478;2023-04-03T13:01:15;2.33;;;2.13;;
8526;SDS011;4301;48.362;8.478;2023-04-03T13:03:44;2.40;;;2.20;;
8526;SDS011;4301;48.362;8.478;2023-04-03T13:06:14;2.67;;;2.30;;
8526;SDS011;4301;48.362;8.478;2023-04-03T13:08:50;4.77;;;2.27;;
8526;SDS011;4301;48.362;8.478;2023-04-03T13:11:17;2.23;;;2.03;;
8526;SDS011;4301;48.362;8.478;2023-04-03T13:13:54;2.53;;;2.20;;
8526;SDS011;4301;48.362;8.478;2023-04-03T13:16:22;2.67;;;2.00;;
8526;SDS011;4301;48.362;8.478;2023-04-03T13:18:50;6.20;;;2.43;;
8526;SDS011;4301;48.362;8.478;2023-04-03T13:21:18;2.40;;;2.20;;
8526;SDS011;4301;48.362;8.478;2023-04-03T13:23:50;2.90;;;2.30;;
8526;SDS011;4301;48.362;8.478;2023-04-03T13:26:20;2.60;;;2.40;;
8526;SDS011;4301;48.362;8.478;2023-04-03T13:28:51;2.80;;;2.37;;
8526;SDS011;4301;48.362;8.478;2023-04-03T13:31:20;2.57;;;2.33;;
8526;SDS011;4301;48.362;8.478;2023-04-03T13:33:55;2.50;;;2.30;;
8526;SDS011;4301;48.362;8.478;2023-04-03T13:36:25;2.37;;;2.27;;
8526;SDS011;4301;48.362;8.478;2023-04-03T13:38:59;2.23;;;2.03;;
8526;SDS011;4301;48.362;8.478;2023-04-03T13:41:29;2.73;;;2.47;;
8526;SDS011;4301;48.362;8.478;2023-04-03T13:46:53;3.37;;;2.30;;
8526;SDS011;4301;48.362;8.478;2023-04-03T13:49:31;3.20;;;2.90;;
8526;SDS011;4301;48.362;8.478;2023-04-03T13:52:01;2.93;;;2.30;;
8526;SDS011;4301;48.362;8.478;2023-04-03T13:54:48;2.93;;;2.30;;
8526;SDS011;4301;48.362;8.478;2023-04-03T13:57:19;4.40;;;2.70;;
8526;SDS011;4301;48.362;8.478;2023-04-03T13:59:46;2.30;;;2.20;;
8526;SDS011;4301;48.362;8.478;2023-04-03T14:02:14;3.10;;;2.30;;
8526;SDS011;4301;48.362;8.478;2023-04-03T14:04:48;2.50;;;2.30;;
8526;SDS011;4301;48.362;8.478;2023-04-03T14:07:18;2.67;;;2.10;;
8526;SDS011;4301;48.362;8.478;2023-04-03T14:09:48;2.47;;;2.27;;
8526;SDS011;4301;48.362;8.478;2023-04-03T14:12:15;7.27;;;5.07;;
8526;SDS011;4301;48.362;8.478;2023-04-03T14:14:45;2.80;;;2.57;;
8526;SDS011;4301;48.362;8.478;2023-04-03T14:17:13;2.87;;;2.43;;
8526;SDS011;4301;48.362;8.478;2023-04-03T14:19:42;2.60;;;2.30;;
8526;SDS011;4301;48.362;8.478;2023-04-03T14:22:13;2.57;;;2.23;;
8526;SDS011;4301;48.362;8.478;2023-04-03T14:24:41;2.20;;;2.10;;
8526;SDS011;4301;48.362;8.478;2023-04-03T14:27:13;3.63;;;2.47;;
8526;SDS011;4301;48.362;8.478;2023-04-03T14:29:43;2.70;;;2.50;;
8526;SDS011;4301;48.362;8.478;2023-04-03T14:32:10;2.57;;;1.97;;
8526;SDS011;4301;48.362;8.478;2023-04-03T14:34:39;2.43;;;2.23;;
8526;SDS011;4301;48.362;8.478;2023-04-03T14:37:09;3.13;;;2.20;;
8526;SDS011;4301;48.362;8.478;2023-04-03T14:39:38;2.83;;;2.57;;
8526;SDS011;4301;48.362;8.478;2023-04-03T14:42:05;3.03;;;2.60;;
8526;SDS011;4301;48.362;8.478;2023-04-03T14:44:33;3.30;;;2.53;;
8526;SDS011;4301;48.362;8.478;2023-04-03T14:47:00;4.67;;;2.40;;
8526;SDS011;4301;48.362;8.478;2023-04-03T14:49:27;5.80;;;2.40;;
8526;SDS011;4301;48.362;8.478;2023-04-03T14:51:55;2.97;;;2.10;;
8526;SDS011;4301;48.362;8.478;2023-04-03T14:54:22;2.87;;;2.50;;
8526;SDS011;4301;48.362;8.478;2023-04-03T14:56:52;4.20;;;2.40;;
8526;SDS011;4301;48.362;8.478;2023-04-03T14:59:21;2.30;;;2.20;;
8526;SDS011;4301;48.362;8.478;2023-04-03T15:01:49;2.70;;;2.43;;
8526;SDS011;4301;48.362;8.478;2023-04-03T15:04:17;2.97;;;2.40;;
8526;SDS011;4301;48.362;8.478;2023-04-03T15:06:45;2.77;;;2.13;;
8526;SDS011;4301;48.362;8.478;2023-04-03T15:09:18;2.93;;;2.63;;
8526;SDS011;4301;48.362;8.478;2023-04-03T15:11:47;4.07;;;2.50;;
8526;SDS011;4301;48.362;8.478;2023-04-03T15:14:14;3.67;;;2.50;;
8526;SDS011;4301;48.362;8.478;2023-04-03T15:16:41;2.73;;;2.17;;
8526;SDS011;4301;48.362;8.478;2023-04-03T15:19:10;3.93;;;2.33;;
8526;SDS011;4301;48.362;8.478;2023-04-03T15:21:37;3.27;;;2.10;;
8526;SDS011;4301;48.362;8.478;2023-04-03T15:24:04;2.77;;;2.20;;
8526;SDS011;4301;48.362;8.478;2023-04-03T15:26:31;2.97;;;2.63;;
8526;SDS011;4301;48.362;8.478;2023-04-03T15:28:59;2.40;;;2.20;;
8526;SDS011;4301;48.362;8.478;2023-04-03T15:31:26;2.23;;;2.10;;
8526;SDS011;4301;48.362;8.478;2023-04-03T15:33:53;4.03;;;2.20;;
8526;SDS011;4301;48.362;8.478;2023-04-03T15:36:22;3.83;;;3.20;;
8526;SDS011;4301;48.362;8.478;2023-04-03T15:38:49;5.77;;;5.27;;
8526;SDS011;4301;48.362;8.478;2023-04-03T15:41:15;4.70;;;2.50;;
8526;SDS011;4301;48.362;8.478;2023-04-03T15:43:42;3.80;;;1.93;;
8526;SDS011;4301;48.362;8.478;2023-04-03T15:46:09;3.40;;;2.60;;
8526;SDS011;4301;48.362;8.478;2023-04-03T15:48:38;4.23;;;2.33;;
8526;SDS011;4301;48.362;8.478;2023-04-03T15:51:05;3.90;;;3.00;;
8526;SDS011;4301;48.362;8.478;2023-04-03T15:53:34;3.93;;;2.70;;